Arthur, North Dakota
Current Conditions -  °F | °C
As of 4:53 AM on Friday 28 Nov 2014 (Local Time) from KFAR Reporting Station
Overcast Overcast  
Wind Chill:   Ceiling: 4600
Heat Index: 13°   Visibility: 7mi
Dew Point:   Wind: 8mph
Humidity: 74%   Direction: 150°SSE
Pressure: 30"   Gusts: NA
Location:  47.1°N, 97.22°W
Report Text: KFAR 281053Z 15007KT 7SM FEW011 OVC046 M11/M14 A3000 RMK AO2 SLP179 T11061144
Loading
Personal Weather Stations






























Interactive Weather Map New forecast layout! Learn more

10-Day Weather Forecast

Advertisements
Track Severe Weather on mobile